sensor_id;sensor_type;location;lat;lon;timestamp;pressure;altitude;pressure_sealevel;temperature;humidity
42125;BME280;27787;44.594;11.046;2023-06-22T00:01:51;101231.56;;;27.40;75.47
42125;BME280;27787;44.594;11.046;2023-06-22T00:04:35;101225.25;;;27.39;76.00
42125;BME280;27787;44.594;11.046;2023-06-22T00:07:19;101215.00;;;27.28;76.67
42125;BME280;27787;44.594;11.046;2023-06-22T00:10:03;101235.13;;;27.24;77.58
42125;BME280;27787;44.594;11.046;2023-06-22T00:12:47;101228.91;;;27.22;77.73
42125;BME280;27787;44.594;11.046;2023-06-22T00:15:31;101225.56;;;27.17;76.51
42125;BME280;27787;44.594;11.046;2023-06-22T00:18:16;101226.78;;;27.12;76.27
42125;BME280;27787;44.594;11.046;2023-06-22T00:21:00;101223.28;;;27.10;75.85
42125;BME280;27787;44.594;11.046;2023-06-22T00:23:44;101223.41;;;27.07;76.07
42125;BME280;27787;44.594;11.046;2023-06-22T00:26:28;101210.28;;;26.99;76.24
42125;BME280;27787;44.594;11.046;2023-06-22T00:29:12;101217.66;;;26.95;76.69
42125;BME280;27787;44.594;11.046;2023-06-22T00:31:56;101200.69;;;26.92;76.71
42125;BME280;27787;44.594;11.046;2023-06-22T00:34:41;101204.19;;;26.94;76.37
42125;BME280;27787;44.594;11.046;2023-06-22T00:37:25;101214.06;;;26.95;76.15
42125;BME280;27787;44.594;11.046;2023-06-22T00:40:11;101212.19;;;26.97;75.41
42125;BME280;27787;44.594;11.046;2023-06-22T00:42:55;101212.19;;;26.97;75.19
42125;BME280;27787;44.594;11.046;2023-06-22T00:45:40;101225.78;;;26.95;74.65
42125;BME280;27787;44.594;11.046;2023-06-22T00:48:24;101216.78;;;26.95;73.59
42125;BME280;27787;44.594;11.046;2023-06-22T00:51:09;101216.16;;;26.90;73.12
42125;BME280;27787;44.594;11.046;2023-06-22T00:53:54;101236.09;;;26.89;73.03
42125;BME280;27787;44.594;11.046;2023-06-22T00:56:43;101220.00;;;26.86;72.77
42125;BME280;27787;44.594;11.046;2023-06-22T00:59:27;101202.00;;;26.85;73.64
42125;BME280;27787;44.594;11.046;2023-06-22T01:02:11;101203.03;;;26.82;74.26
42125;BME280;27787;44.594;11.046;2023-06-22T01:04:56;101204.41;;;26.73;74.37
42125;BME280;27787;44.594;11.046;2023-06-22T01:13:43;101205.94;;;26.62;74.45
42125;BME280;27787;44.594;11.046;2023-06-22T01:16:37;101215.97;;;26.60;75.16
42125;BME280;27787;44.594;11.046;2023-06-22T01:22:22;101218.59;;;26.61;74.82
42125;BME280;27787;44.594;11.046;2023-06-22T01:25:12;101231.88;;;26.66;74.66
42125;BME280;27787;44.594;11.046;2023-06-22T01:28:23;101221.47;;;26.58;75.12
42125;BME280;27787;44.594;11.046;2023-06-22T01:31:10;101223.75;;;26.49;76.82
42125;BME280;27787;44.594;11.046;2023-06-22T01:34:00;101232.78;;;26.30;78.16
42125;BME280;27787;44.594;11.046;2023-06-22T01:36:46;101219.22;;;26.13;79.33
42125;BME280;27787;44.594;11.046;2023-06-22T01:39:31;101221.59;;;26.02;80.83
42125;BME280;27787;44.594;11.046;2023-06-22T01:42:16;101215.03;;;25.88;81.88
42125;BME280;27787;44.594;11.046;2023-06-22T01:45:02;101224.69;;;25.75;82.65
42125;BME280;27787;44.594;11.046;2023-06-22T01:47:48;101224.28;;;25.64;83.31
42125;BME280;27787;44.594;11.046;2023-06-22T01:50:32;101229.78;;;25.63;84.11
42125;BME280;27787;44.594;11.046;2023-06-22T01:53:16;101229.38;;;25.72;83.53
42125;BME280;27787;44.594;11.046;2023-06-22T01:56:00;101206.28;;;25.83;83.10
42125;BME280;27787;44.594;11.046;2023-06-22T01:59:07;101210.28;;;25.94;82.82
42125;BME280;27787;44.594;11.046;2023-06-22T02:02:07;101221.59;;;26.02;82.85
42125;BME280;27787;44.594;11.046;2023-06-22T02:05:10;101211.44;;;26.07;82.28
42125;BME280;27787;44.594;11.046;2023-06-22T02:08:16;101224.09;;;26.06;82.16
42125;BME280;27787;44.594;11.046;2023-06-22T02:11:03;101226.00;;;26.04;81.84
42125;BME280;27787;44.594;11.046;2023-06-22T02:13:48;101218.50;;;26.09;82.08
42125;BME280;27787;44.594;11.046;2023-06-22T02:16:32;101220.03;;;26.15;81.43
42125;BME280;27787;44.594;11.046;2023-06-22T02:19:16;101227.59;;;26.26;80.84
42125;BME280;27787;44.594;11.046;2023-06-22T02:22:03;101235.56;;;26.29;81.02
42125;BME280;27787;44.594;11.046;2023-06-22T02:24:47;101236.59;;;26.26;82.29
42125;BME280;27787;44.594;11.046;2023-06-22T02:27:31;101246.72;;;26.23;82.78
42125;BME280;27787;44.594;11.046;2023-06-22T02:30:15;101251.50;;;26.17;83.05
42125;BME280;27787;44.594;11.046;2023-06-22T02:33:00;101242.94;;;26.08;82.83
42125;BME280;27787;44.594;11.046;2023-06-22T02:35:44;101237.03;;;26.00;83.32
42125;BME280;27787;44.594;11.046;2023-06-22T02:38:32;101238.13;;;25.96;83.76
42125;BME280;27787;44.594;11.046;2023-06-22T02:41:20;101227.22;;;25.97;84.15
42125;BME280;27787;44.594;11.046;2023-06-22T02:44:04;101228.97;;;25.98;84.42
42125;BME280;27787;44.594;11.046;2023-06-22T02:46:48;101238.84;;;25.99;84.06
42125;BME280;27787;44.594;11.046;2023-06-22T02:49:34;101237.09;;;25.98;84.05
42125;BME280;27787;44.594;11.046;2023-06-22T02:52:19;101250.28;;;25.87;84.17
42125;BME280;27787;44.594;11.046;2023-06-22T02:55:03;101252.53;;;25.77;84.55
42125;BME280;27787;44.594;11.046;2023-06-22T02:57:48;101256.69;;;25.66;85.47
42125;BME280;27787;44.594;11.046;2023-06-22T03:00:36;101249.66;;;25.62;85.96
42125;BME280;27787;44.594;11.046;2023-06-22T03:03:22;101261.34;;;25.62;86.26
42125;BME280;27787;44.594;11.046;2023-06-22T03:06:07;101260.69;;;25.57;86.43
42125;BME280;27787;44.594;11.046;2023-06-22T03:08:51;101265.38;;;25.53;86.93
42125;BME280;27787;44.594;11.046;2023-06-22T03:11:36;101266.38;;;25.51;87.09
42125;BME280;27787;44.594;11.046;2023-06-22T03:14:20;101273.75;;;25.47;87.16
42125;BME280;27787;44.594;11.046;2023-06-22T03:17:05;101275.81;;;25.42;nan
42125;BME280;27787;44.594;11.046;2023-06-22T03:19:50;101278.59;;;25.41;87.11
42125;BME280;27787;44.594;11.046;2023-06-22T03:22:35;101275.88;;;25.41;87.10
42125;BME280;27787;44.594;11.046;2023-06-22T03:25:19;101285.00;;;25.38;87.47
42125;BME280;27787;44.594;11.046;2023-06-22T03:28:06;101276.75;;;25.41;87.80
42125;BME280;27787;44.594;11.046;2023-06-22T03:30:51;101277.56;;;25.43;87.35
42125;BME280;27787;44.594;11.046;2023-06-22T03:33:35;101270.41;;;25.42;87.05
42125;BME280;27787;44.594;11.046;2023-06-22T03:36:19;101281.28;;;25.41;85.96
42125;BME280;27787;44.594;11.046;2023-06-22T03:39:05;101273.44;;;25.35;86.80
42125;BME280;27787;44.594;11.046;2023-06-22T03:41:49;101281.63;;;25.33;86.87
42125;BME280;27787;44.594;11.046;2023-06-22T03:44:34;101282.81;;;25.27;86.85
42125;BME280;27787;44.594;11.046;2023-06-22T03:47:20;101277.50;;;25.24;87.29
42125;BME280;27787;44.594;11.046;2023-06-22T03:50:05;101283.00;;;25.23;87.08
42125;BME280;27787;44.594;11.046;2023-06-22T03:52:49;101286.72;;;25.20;87.47
42125;BME280;27787;44.594;11.046;2023-06-22T03:55:36;101279.78;;;25.15;88.02
42125;BME280;27787;44.594;11.046;2023-06-22T03:58:21;101277.94;;;25.15;87.84
42125;BME280;27787;44.594;11.046;2023-06-22T04:01:05;101278.69;;;25.19;87.59
42125;BME280;27787;44.594;11.046;2023-06-22T04:03:50;101283.34;;;25.15;87.65
42125;BME280;27787;44.594;11.046;2023-06-22T04:06:34;101270.72;;;25.16;87.55
42125;BME280;27787;44.594;11.046;2023-06-22T04:09:19;101282.56;;;25.13;87.75
42125;BME280;27787;44.594;11.046;2023-06-22T04:12:03;101284.41;;;25.11;88.17
42125;BME280;27787;44.594;11.046;2023-06-22T04:14:47;101284.41;;;25.11;88.15
42125;BME280;27787;44.594;11.046;2023-06-22T04:17:32;101288.75;;;25.15;87.97
42125;BME280;27787;44.594;11.046;2023-06-22T04:20:16;101288.53;;;25.20;88.01
42125;BME280;27787;44.594;11.046;2023-06-22T04:23:00;101275.97;;;25.19;87.52
42125;BME280;27787;44.594;11.046;2023-06-22T04:25:45;101279.56;;;25.19;87.49
42125;BME280;27787;44.594;11.046;2023-06-22T04:28:29;101279.50;;;25.21;87.93
42125;BME280;27787;44.594;11.046;2023-06-22T04:31:14;101275.75;;;25.23;87.53
42125;BME280;27787;44.594;11.046;2023-06-22T04:34:00;101273.66;;;25.30;86.78
42125;BME280;27787;44.594;11.046;2023-06-22T04:36:50;101272.56;;;25.34;86.17
42125;BME280;27787;44.594;11.046;2023-06-22T04:39:34;101278.94;;;25.33;86.60
42125;BME280;27787;44.594;11.046;2023-06-22T04:42:18;101274.75;;;25.26;88.01
42125;BME280;27787;44.594;11.046;2023-06-22T04:45:02;101279.50;;;25.21;88.46
42125;BME280;27787;44.594;11.046;2023-06-22T04:47:47;101287.00;;;25.14;88.73
42125;BME280;27787;44.594;11.046;2023-06-22T04:50:31;101284.41;;;25.11;89.07
42125;BME280;27787;44.594;11.046;2023-06-22T04:53:15;101287.81;;;25.16;89.63
42125;BME280;27787;44.594;11.046;2023-06-22T04:55:59;101282.84;;;25.26;88.92
42125;BME280;27787;44.594;11.046;2023-06-22T04:58:43;101275.13;;;25.37;88.46
42125;BME280;27787;44.594;11.046;2023-06-22T05:01:27;101277.56;;;25.43;88.01
42125;BME280;27787;44.594;11.046;2023-06-22T05:04:12;101280.13;;;25.46;87.61
42125;BME280;27787;44.594;11.046;2023-06-22T05:06:57;101280.91;;;25.48;87.17
42125;BME280;27787;44.594;11.046;2023-06-22T05:09:42;101276.03;;;25.56;86.92
42125;BME280;27787;44.594;11.046;2023-06-22T05:12:27;101275.50;;;25.69;86.62
42125;BME280;27787;44.594;11.046;2023-06-22T05:15:12;101281.22;;;25.81;86.11
42125;BME280;27787;44.594;11.046;2023-06-22T05:17:56;101278.19;;;25.87;85.67
42125;BME280;27787;44.594;11.046;2023-06-22T05:20:42;101279.00;;;25.90;85.52
42125;BME280;27787;44.594;11.046;2023-06-22T05:23:26;101288.75;;;25.94;85.92
42125;BME280;27787;44.594;11.046;2023-06-22T05:26:10;101288.66;;;25.95;85.36
42125;BME280;27787;44.594;11.046;2023-06-22T05:28:54;101283.19;;;25.97;85.57
42125;BME280;27787;44.594;11.046;2023-06-22T05:31:38;101286.84;;;25.96;84.08
42125;BME280;27787;44.594;11.046;2023-06-22T05:34:24;101287.00;;;25.93;83.49
42125;BME280;27787;44.594;11.046;2023-06-22T05:37:08;101287.13;;;25.90;83.59
42125;BME280;27787;44.594;11.046;2023-06-22T05:39:53;101280.69;;;25.92;83.50
42125;BME280;27787;44.594;11.046;2023-06-22T05:42:39;101279.81;;;25.92;83.04
42125;BME280;27787;44.594;11.046;2023-06-22T05:45:23;101286.84;;;25.96;83.15
42125;BME280;27787;44.594;11.046;2023-06-22T05:48:07;101287.19;;;26.07;83.34
42125;BME280;27787;44.594;11.046;2023-06-22T05:50:51;101272.41;;;26.14;82.72
42125;BME280;27787;44.594;11.046;2023-06-22T05:53:35;101268.28;;;26.24;83.64
42125;BME280;27787;44.594;11.046;2023-06-22T05:56:19;101271.22;;;26.38;85.96
42125;BME280;27787;44.594;11.046;2023-06-22T05:59:04;101270.69;;;26.49;88.75
42125;BME280;27787;44.594;11.046;2023-06-22T06:01:49;101263.19;;;26.54;88.96
42125;BME280;27787;44.594;11.046;2023-06-22T06:04:34;101265.88;;;26.54;87.82
42125;BME280;27787;44.594;11.046;2023-06-22T06:07:18;101266.75;;;26.55;86.62
42125;BME280;27787;44.594;11.046;2023-06-22T06:10:03;101268.75;;;26.51;84.38
42125;BME280;27787;44.594;11.046;2023-06-22T06:12:48;101260.88;;;26.47;81.79
42125;BME280;27787;44.594;11.046;2023-06-22T06:15:35;101264.63;;;26.44;81.27
42125;BME280;27787;44.594;11.046;2023-06-22T06:18:19;101262.34;;;26.35;77.82
42125;BME280;27787;44.594;11.046;2023-06-22T06:21:03;101265.25;;;26.30;77.22
42125;BME280;27787;44.594;11.046;2023-06-22T06:23:47;101270.66;;;26.30;77.84
42125;BME280;27787;44.594;11.046;2023-06-22T06:26:31;101273.38;;;26.30;78.22
42125;BME280;27787;44.594;11.046;2023-06-22T06:29:16;101267.25;;;26.27;79.20
42125;BME280;27787;44.594;11.046;2023-06-22T06:32:00;101272.81;;;26.24;77.90
42125;BME280;27787;44.594;11.046;2023-06-22T06:34:45;101275.63;;;26.22;78.38
42125;BME280;27787;44.594;11.046;2023-06-22T06:37:29;101277.53;;;26.20;77.54
42125;BME280;27787;44.594;11.046;2023-06-22T06:40:14;101289.16;;;26.22;77.23
42125;BME280;27787;44.594;11.046;2023-06-22T06:42:58;101278.00;;;26.28;76.99
42125;BME280;27787;44.594;11.046;2023-06-22T06:45:42;101276.91;;;26.32;76.42
42125;BME280;27787;44.594;11.046;2023-06-22T06:48:26;101280.38;;;26.36;75.31
42125;BME280;27787;44.594;11.046;2023-06-22T06:51:10;101278.47;;;26.38;73.21
42125;BME280;27787;44.594;11.046;2023-06-22T06:53:54;101275.47;;;26.44;73.08
42125;BME280;27787;44.594;11.046;2023-06-22T06:56:38;101280.53;;;26.50;73.04
42125;BME280;27787;44.594;11.046;2023-06-22T06:59:22;101282.22;;;26.53;71.00
42125;BME280;27787;44.594;11.046;2023-06-22T07:02:06;101283.97;;;26.54;69.02
42125;BME280;27787;44.594;11.046;2023-06-22T07:04:50;101274.88;;;26.55;69.15
42125;BME280;27787;44.594;11.046;2023-06-22T07:07:35;101270.22;;;26.58;68.30
42125;BME280;27787;44.594;11.046;2023-06-22T07:10:19;101256.34;;;26.64;68.53
42125;BME280;27787;44.594;11.046;2023-06-22T07:13:03;101264.00;;;26.73;68.19
42125;BME280;27787;44.594;11.046;2023-06-22T07:15:48;101268.13;;;26.81;67.38
42125;BME280;27787;44.594;11.046;2023-06-22T07:18:32;101265.34;;;26.82;66.89
42125;BME280;27787;44.594;11.046;2023-06-22T07:21:16;101258.91;;;26.85;67.21
42125;BME280;27787;44.594;11.046;2023-06-22T07:24:01;101250.69;;;26.86;66.91
42125;BME280;27787;44.594;11.046;2023-06-22T07:26:46;101260.50;;;26.89;65.35
42125;BME280;27787;44.594;11.046;2023-06-22T07:29:32;101261.28;;;26.91;64.63
42125;BME280;27787;44.594;11.046;2023-06-22T07:32:17;101261.94;;;26.96;64.29
42125;BME280;27787;44.594;11.046;2023-06-22T07:35:02;101260.00;;;26.98;63.34
42125;BME280;27787;44.594;11.046;2023-06-22T07:37:46;101248.13;;;27.00;62.44
42125;BME280;27787;44.594;11.046;2023-06-22T07:40:30;101241.53;;;27.06;62.54
42125;BME280;27787;44.594;11.046;2023-06-22T07:43:15;101236.56;;;27.14;63.33
42125;BME280;27787;44.594;11.046;2023-06-22T07:45:59;101232.41;;;27.24;64.01
42125;BME280;27787;44.594;11.046;2023-06-22T07:48:43;101233.09;;;27.28;62.63
42125;BME280;27787;44.594;11.046;2023-06-22T07:51:27;101232.84;;;27.32;62.48
42125;BME280;27787;44.594;11.046;2023-06-22T07:54:12;101223.75;;;27.33;60.39
42125;BME280;27787;44.594;11.046;2023-06-22T07:56:56;101223.69;;;27.35;61.59
42125;BME280;27787;44.594;11.046;2023-06-22T07:59:40;101221.69;;;27.39;61.87
42125;BME280;27787;44.594;11.046;2023-06-22T08:07:59;101219.94;;;27.53;61.81
42125;BME280;27787;44.594;11.046;2023-06-22T08:10:43;101231.31;;;27.60;62.64
42125;BME280;27787;44.594;11.046;2023-06-22T08:13:27;101227.34;;;27.67;62.27
42125;BME280;27787;44.594;11.046;2023-06-22T08:16:11;101224.03;;;27.78;60.90
42125;BME280;27787;44.594;11.046;2023-06-22T08:18:55;101238.19;;;27.83;61.70
42125;BME280;27787;44.594;11.046;2023-06-22T08:21:40;101237.94;;;27.87;60.81
42125;BME280;27787;44.594;11.046;2023-06-22T08:24:24;101227.88;;;27.89;60.03
42125;BME280;27787;44.594;11.046;2023-06-22T08:27:09;101240.19;;;27.95;60.80
42125;BME280;27787;44.594;11.046;2023-06-22T08:29:55;101234.00;;;27.93;60.58
42125;BME280;27787;44.594;11.046;2023-06-22T08:32:42;101230.13;;;27.97;60.88
42125;BME280;27787;44.594;11.046;2023-06-22T08:35:27;101235.31;;;28.02;61.57
42125;BME280;27787;44.594;11.046;2023-06-22T08:38:11;101234.16;;;28.06;61.39
42125;BME280;27787;44.594;11.046;2023-06-22T08:40:59;101239.31;;;28.10;60.13
42125;BME280;27787;44.594;11.046;2023-06-22T08:43:44;101215.75;;;28.11;58.58
42125;BME280;27787;44.594;11.046;2023-06-22T08:46:28;101204.78;;;28.12;57.71
42125;BME280;27787;44.594;11.046;2023-06-22T08:49:17;101205.50;;;28.16;58.01
42125;BME280;27787;44.594;11.046;2023-06-22T08:52:01;101215.22;;;28.20;57.85
42125;BME280;27787;44.594;11.046;2023-06-22T08:54:45;101217.75;;;28.23;57.00
42125;BME280;27787;44.594;11.046;2023-06-22T08:57:30;101203.06;;;28.27;56.82
42125;BME280;27787;44.594;11.046;2023-06-22T09:00:15;101207.44;;;28.30;57.74
42125;BME280;27787;44.594;11.046;2023-06-22T09:03:01;101218.81;;;28.36;57.93
42125;BME280;27787;44.594;11.046;2023-06-22T09:05:45;101208.66;;;28.40;56.84
42125;BME280;27787;44.594;11.046;2023-06-22T09:08:30;101213.69;;;28.46;56.99
42125;BME280;27787;44.594;11.046;2023-06-22T09:11:14;101208.78;;;28.53;56.63
42125;BME280;27787;44.594;11.046;2023-06-22T09:13:59;101205.19;;;28.52;57.43
42125;BME280;27787;44.594;11.046;2023-06-22T09:16:43;101203.50;;;28.49;57.71
42125;BME280;27787;44.594;11.046;2023-06-22T09:19:28;101202.63;;;28.49;58.38
42125;BME280;27787;44.594;11.046;2023-06-22T09:22:12;101204.47;;;28.48;57.97
42125;BME280;27787;44.594;11.046;2023-06-22T09:24:56;101200.53;;;28.54;57.79
42125;BME280;27787;44.594;11.046;2023-06-22T09:27:41;101195.25;;;28.67;57.19
42125;BME280;27787;44.594;11.046;2023-06-22T09:30:25;101192.91;;;28.75;56.86
42125;BME280;27787;44.594;11.046;2023-06-22T09:33:09;101192.19;;;28.87;56.09
42125;BME280;27787;44.594;11.046;2023-06-22T09:35:53;101184.44;;;28.95;55.89
42125;BME280;27787;44.594;11.046;2023-06-22T09:38:37;101182.69;;;28.94;57.83
42125;BME280;27787;44.594;11.046;2023-06-22T09:41:22;101180.75;;;28.96;58.35
42125;BME280;27787;44.594;11.046;2023-06-22T09:44:06;101180.06;;;28.93;56.94
42125;BME280;27787;44.594;11.046;2023-06-22T09:46:50;101183.66;;;29.07;55.58
42125;BME280;27787;44.594;11.046;2023-06-22T09:49:34;101180.63;;;29.12;54.14
42125;BME280;27787;44.594;11.046;2023-06-22T09:52:18;101192.47;;;29.25;53.80
42125;BME280;27787;44.594;11.046;2023-06-22T09:55:03;101191.91;;;29.34;51.90
42125;BME280;27787;44.594;11.046;2023-06-22T09:57:48;101185.88;;;29.44;50.91
42125;BME280;27787;44.594;11.046;2023-06-22T10:00:32;101186.06;;;29.55;53.48
42125;BME280;27787;44.594;11.046;2023-06-22T10:03:16;101176.91;;;29.56;56.22
42125;BME280;27787;44.594;11.046;2023-06-22T10:06:00;101163.59;;;29.65;57.08
42125;BME280;27787;44.594;11.046;2023-06-22T10:08:44;101161.63;;;29.67;57.20
42125;BME280;27787;44.594;11.046;2023-06-22T10:11:29;101171.53;;;29.69;54.76
42125;BME280;27787;44.594;11.046;2023-06-22T10:14:14;101169.53;;;29.72;53.90
42125;BME280;27787;44.594;11.046;2023-06-22T10:16:58;101166.69;;;29.74;54.84
42125;BME280;27787;44.594;11.046;2023-06-22T10:19:43;101170.38;;;29.73;55.65
42125;BME280;27787;44.594;11.046;2023-06-22T10:22:27;101167.00;;;29.69;54.93
42125;BME280;27787;44.594;11.046;2023-06-22T10:25:12;101168.44;;;29.75;54.72
42125;BME280;27787;44.594;11.046;2023-06-22T10:27:57;101174.19;;;29.70;55.72
42125;BME280;27787;44.594;11.046;2023-06-22T10:30:41;101168.81;;;29.69;57.32
42125;BME280;27787;44.594;11.046;2023-06-22T10:33:26;101159.88;;;29.66;57.67
42125;BME280;27787;44.594;11.046;2023-06-22T10:36:10;101159.44;;;29.60;58.00
42125;BME280;27787;44.594;11.046;2023-06-22T10:38:55;101155.16;;;29.56;58.18
42125;BME280;27787;44.594;11.046;2023-06-22T10:41:40;101148.44;;;29.61;59.50
42125;BME280;27787;44.594;11.046;2023-06-22T10:44:24;101145.84;;;29.60;58.75
42125;BME280;27787;44.594;11.046;2023-06-22T10:47:08;101139.41;;;29.61;59.63
42125;BME280;27787;44.594;11.046;2023-06-22T10:49:52;101137.34;;;29.64;60.12
42125;BME280;27787;44.594;11.046;2023-06-22T10:52:36;101135.59;;;29.63;59.80
42125;BME280;27787;44.594;11.046;2023-06-22T10:55:21;101152.50;;;29.69;57.76
42125;BME280;27787;44.594;11.046;2023-06-22T10:58:05;101141.31;;;29.73;57.14
42125;BME280;27787;44.594;11.046;2023-06-22T11:00:50;101143.50;;;29.81;57.31
42125;BME280;27787;44.594;11.046;2023-06-22T11:03:34;101144.75;;;29.89;58.36
42125;BME280;27787;44.594;11.046;2023-06-22T11:06:18;101151.06;;;29.90;57.13
42125;BME280;27787;44.594;11.046;2023-06-22T11:09:02;101153.41;;;29.96;57.05
42125;BME280;27787;44.594;11.046;2023-06-22T11:11:49;101135.09;;;29.98;56.18
42125;BME280;27787;44.594;11.046;2023-06-22T11:14:33;101136.44;;;30.05;55.69
42125;BME280;27787;44.594;11.046;2023-06-22T11:17:18;101135.47;;;30.06;54.61
42125;BME280;27787;44.594;11.046;2023-06-22T11:20:02;101124.56;;;30.06;54.41
42125;BME280;27787;44.594;11.046;2023-06-22T11:22:53;101120.69;;;30.10;54.93
42125;BME280;27787;44.594;11.046;2023-06-22T11:25:37;101117.41;;;30.18;55.52
42125;BME280;27787;44.594;11.046;2023-06-22T11:28:22;101104.16;;;30.26;56.65
42125;BME280;27787;44.594;11.046;2023-06-22T11:31:07;101095.88;;;30.28;56.31
42125;BME280;27787;44.594;11.046;2023-06-22T11:33:51;101091.94;;;30.32;56.05
42125;BME280;27787;44.594;11.046;2023-06-22T11:36:36;101080.63;;;30.38;55.02
42125;BME280;27787;44.594;11.046;2023-06-22T11:39:20;101070.59;;;30.38;54.46
42125;BME280;27787;44.594;11.046;2023-06-22T11:42:04;101063.19;;;30.40;53.62
42125;BME280;27787;44.594;11.046;2023-06-22T11:44:49;101062.09;;;30.43;53.93
42125;BME280;27787;44.594;11.046;2023-06-22T11:47:33;101050.44;;;30.41;53.11
42125;BME280;27787;44.594;11.046;2023-06-22T11:50:17;101057.50;;;30.43;52.45
42125;BME280;27787;44.594;11.046;2023-06-22T11:53:02;101068.09;;;30.48;52.45
42125;BME280;27787;44.594;11.046;2023-06-22T11:55:47;101064.50;;;30.60;50.89
42125;BME280;27787;44.594;11.046;2023-06-22T11:58:31;101055.44;;;30.72;51.02
42125;BME280;27787;44.594;11.046;2023-06-22T12:01:16;101049.34;;;30.81;50.09
42125;BME280;27787;44.594;11.046;2023-06-22T12:04:00;101037.44;;;30.82;51.13
42125;BME280;27787;44.594;11.046;2023-06-22T12:06:44;101032.75;;;30.85;51.80
42125;BME280;27787;44.594;11.046;2023-06-22T12:09:29;101029.16;;;30.84;50.76
42125;BME280;27787;44.594;11.046;2023-06-22T12:12:13;101032.56;;;30.88;52.08
42125;BME280;27787;44.594;11.046;2023-06-22T12:14:57;101022.50;;;30.88;52.55
42125;BME280;27787;44.594;11.046;2023-06-22T12:17:41;101020.19;;;30.95;52.90
42125;BME280;27787;44.594;11.046;2023-06-22T12:20:26;101017.22;;;30.98;53.07
42125;BME280;27787;44.594;11.046;2023-06-22T12:23:10;101014.19;;;31.02;53.41
42125;BME280;27787;44.594;11.046;2023-06-22T12:25:54;101008.88;;;31.12;52.50
42125;BME280;27787;44.594;11.046;2023-06-22T12:28:38;101008.34;;;31.20;54.45
42125;BME280;27787;44.594;11.046;2023-06-22T12:31:22;101019.56;;;31.28;54.11
42125;BME280;27787;44.594;11.046;2023-06-22T12:34:06;101011.91;;;31.33;53.63
42125;BME280;27787;44.594;11.046;2023-06-22T12:36:50;101013.06;;;31.42;53.55
42125;BME280;27787;44.594;11.046;2023-06-22T12:39:34;101003.41;;;31.49;53.98
42125;BME280;27787;44.594;11.046;2023-06-22T12:42:19;101000.34;;;31.53;52.44
42125;BME280;27787;44.594;11.046;2023-06-22T12:45:03;101004.22;;;31.62;51.82
42125;BME280;27787;44.594;11.046;2023-06-22T12:47:48;101000.03;;;31.69;48.76
42125;BME280;27787;44.594;11.046;2023-06-22T12:50:34;100995.13;;;31.74;47.97
42125;BME280;27787;44.594;11.046;2023-06-22T12:53:21;100991.19;;;31.78;46.89
42125;BME280;27787;44.594;11.046;2023-06-22T12:56:07;100991.44;;;31.86;47.37
42125;BME280;27787;44.594;11.046;2023-06-22T12:58:51;100982.53;;;31.95;49.18
42125;BME280;27787;44.594;11.046;2023-06-22T13:01:35;100980.81;;;32.06;49.72
42125;BME280;27787;44.594;11.046;2023-06-22T13:04:20;100986.88;;;32.09;47.18
42125;BME280;27787;44.594;11.046;2023-06-22T13:07:05;100988.25;;;32.15;47.32
42125;BME280;27787;44.594;11.046;2023-06-22T13:09:50;100987.66;;;32.22;46.78
42125;BME280;27787;44.594;11.046;2023-06-22T13:12:37;100984.34;;;32.30;45.95
42125;BME280;27787;44.594;11.046;2023-06-22T13:15:21;100976.78;;;32.34;45.34
42125;BME280;27787;44.594;11.046;2023-06-22T13:18:05;100975.25;;;32.41;45.96
42125;BME280;27787;44.594;11.046;2023-06-22T13:20:50;100970.53;;;32.54;45.34
42125;BME280;27787;44.594;11.046;2023-06-22T13:23:34;100973.91;;;32.69;45.17
42125;BME280;27787;44.594;11.046;2023-06-22T13:26:18;100971.53;;;32.87;45.83
42125;BME280;27787;44.594;11.046;2023-06-22T13:29:02;100961.94;;;33.03;46.00
42125;BME280;27787;44.594;11.046;2023-06-22T13:31:47;100960.66;;;33.07;44.38
42125;BME280;27787;44.594;11.046;2023-06-22T13:34:31;100958.03;;;33.17;44.86
42125;BME280;27787;44.594;11.046;2023-06-22T13:37:15;100953.66;;;33.26;43.78
42125;BME280;27787;44.594;11.046;2023-06-22T13:39:59;100955.84;;;33.32;42.77
42125;BME280;27787;44.594;11.046;2023-06-22T13:42:43;100963.00;;;33.34;42.12
42125;BME280;27787;44.594;11.046;2023-06-22T13:45:27;100949.91;;;33.38;40.65
42125;BME280;27787;44.594;11.046;2023-06-22T13:48:11;100947.16;;;33.38;41.43
42125;BME280;27787;44.594;11.046;2023-06-22T13:50:55;100943.88;;;33.44;43.68
42125;BME280;27787;44.594;11.046;2023-06-22T13:53:39;100949.13;;;33.47;43.25
42125;BME280;27787;44.594;11.046;2023-06-22T13:56:24;100943.66;;;33.47;41.47
42125;BME280;27787;44.594;11.046;2023-06-22T13:59:08;100942.38;;;33.51;41.51
42125;BME280;27787;44.594;11.046;2023-06-22T14:01:55;100934.63;;;33.56;41.85
42125;BME280;27787;44.594;11.046;2023-06-22T14:04:40;100933.75;;;33.56;41.65
42125;BME280;27787;44.594;11.046;2023-06-22T14:07:24;100932.44;;;33.50;41.92
42125;BME280;27787;44.594;11.046;2023-06-22T14:10:09;100927.41;;;33.55;42.39
42125;BME280;27787;44.594;11.046;2023-06-22T14:12:53;100927.03;;;33.60;42.98
42125;BME280;27787;44.594;11.046;2023-06-22T14:15:38;100926.69;;;33.53;41.85
42125;BME280;27787;44.594;11.046;2023-06-22T14:18:22;100924.66;;;33.55;41.59
42125;BME280;27787;44.594;11.046;2023-06-22T14:21:07;100918.59;;;33.52;42.10
42125;BME280;27787;44.594;11.046;2023-06-22T14:23:52;100918.47;;;33.53;43.40
42125;BME280;27787;44.594;11.046;2023-06-22T14:26:36;100911.31;;;33.41;43.32